Time;durP1;ratioP1;P1;durP2;ratioP2;P2;SDS_P1;SDS_P2;PMS_P1;PMS_P2;Temp;Humidity;BMP_temperature;BMP_pressure;BME280_temperature;BME280_humidity;BME280_pressure;Samples;Min_cycle;Max_cycle;Signal;HPM_P1;HPM_P2
2023/10/16 00:01:26;;;;;;;2.42;0.30;;;;;;;5.54;58.36;100444.91;5040002;28;20508;-78
2023/10/16 00:03:55;;;;;;;0.50;0.00;;;;;;;5.52;57.98;100453.53;5040052;28;21481;-79
2023/10/16 00:06:22;;;;;;;0.20;0.00;;;;;;;5.38;58.33;100427.69;5044285;28;20048;-78
2023/10/16 00:08:53;;;;;;;0.40;0.10;;;;;;;5.49;58.32;100451.81;5039911;28;20067;-78
2023/10/16 00:11:23;;;;;;;0.22;0.00;;;;;;;5.47;58.35;100453.56;5042722;28;20071;-78
2023/10/16 00:13:50;;;;;;;0.68;0.10;;;;;;;5.42;58.26;100447.53;5042265;28;20805;-78
2023/10/16 00:16:18;;;;;;;1.52;0.10;;;;;;;5.43;58.32;100449.25;5046078;28;20422;-78
2023/10/16 00:18:47;;;;;;;0.50;0.10;;;;;;;5.42;58.38;100450.13;5043790;28;20041;-79
2023/10/16 00:21:15;;;;;;;0.43;0.00;;;;;;;5.37;58.27;100446.66;5046702;28;20041;-78
2023/10/16 00:23:42;;;;;;;0.10;0.10;;;;;;;5.37;58.65;100454.44;5045638;28;20051;-79
2023/10/16 00:26:12;;;;;;;4.78;0.10;;;;;;;5.36;58.66;100465.69;5044502;28;20045;-79
2023/10/16 00:28:44;;;;;;;1.65;0.10;;;;;;;5.34;58.63;100467.41;5046324;28;20044;-78
2023/10/16 00:31:12;;;;;;;3.30;0.10;;;;;;;5.33;58.58;100468.28;5042832;28;20046;-78
2023/10/16 00:33:40;;;;;;;1.40;0.08;;;;;;;5.30;58.72;100469.13;5044258;28;20046;-78
2023/10/16 00:36:07;;;;;;;1.33;0.10;;;;;;;5.31;58.56;100472.59;5044039;28;20083;-78
2023/10/16 00:38:37;;;;;;;0.40;0.08;;;;;;;5.29;58.81;100469.13;5042149;28;20411;-78
2023/10/16 00:41:16;;;;;;;0.77;0.10;;;;;;;5.27;58.79;100471.75;5038597;28;20078;-79
2023/10/16 00:43:45;;;;;;;0.55;0.10;;;;;;;5.26;58.92;100484.69;5043931;28;20057;-78
2023/10/16 00:46:19;;;;;;;0.93;0.00;;;;;;;5.24;58.84;100478.66;5044879;28;20037;-79
2023/10/16 00:48:47;;;;;;;0.88;0.00;;;;;;;5.23;58.74;100482.09;5043453;28;21963;-78
2023/10/16 00:51:16;;;;;;;1.75;0.13;;;;;;;5.23;58.98;100484.69;5042286;28;20042;-77
2023/10/16 00:53:45;;;;;;;1.25;0.10;;;;;;;5.19;58.87;100489.88;5043876;28;20127;-79
2023/10/16 00:56:14;;;;;;;0.40;0.25;;;;;;;5.15;58.94;100482.97;5043463;28;20052;-79
2023/10/16 00:58:42;;;;;;;0.88;0.03;;;;;;;5.13;58.83;100479.53;5045074;28;20057;-79
2023/10/16 01:01:09;;;;;;;1.95;0.10;;;;;;;5.15;58.68;100503.69;5048503;28;20049;-79
2023/10/16 01:03:37;;;;;;;4.85;0.10;;;;;;;5.15;58.84;100501.09;5049840;28;20053;-79
2023/10/16 01:06:09;;;;;;;0.35;0.22;;;;;;;5.15;59.09;100501.09;5039545;28;20045;-79
2023/10/16 01:08:38;;;;;;;0.68;0.10;;;;;;;5.14;59.08;100490.72;5044780;28;20045;-78
2023/10/16 01:11:09;;;;;;;0.28;0.03;;;;;;;5.12;59.06;100495.94;5045658;28;20110;-78
2023/10/16 01:13:38;;;;;;;1.33;0.00;;;;;;;5.11;59.10;100509.72;5041196;28;20090;-78
2023/10/16 01:16:07;;;;;;;1.30;0.10;;;;;;;5.10;59.21;100505.41;5045819;28;20041;-79
2023/10/16 01:18:34;;;;;;;1.38;0.20;;;;;;;5.01;59.24;100495.06;5047166;28;20049;-80
2023/10/16 01:21:05;;;;;;;0.47;0.13;;;;;;;5.06;59.14;100503.69;5038773;28;20057;-73
2023/10/16 01:23:35;;;;;;;4.35;0.10;;;;;;;5.06;59.21;100502.81;5042298;28;20053;-74
2023/10/16 01:26:02;;;;;;;0.28;0.00;;;;;;;5.03;59.10;100503.69;5037774;28;20098;-72
2023/10/16 01:28:30;;;;;;;2.20;0.10;;;;;;;5.04;59.13;100512.31;5042635;28;20103;-73
2023/10/16 01:30:57;;;;;;;1.20;0.10;;;;;;;5.03;59.09;100515.75;5037766;28;21996;-72
2023/10/16 01:33:24;;;;;;;2.92;0.15;;;;;;;5.01;59.24;100512.31;5037406;28;20135;-72
2023/10/16 01:35:51;;;;;;;2.97;0.28;;;;;;;4.99;59.26;100509.72;5040879;28;20060;-73
2023/10/16 01:38:19;;;;;;;5.90;0.10;;;;;;;4.99;59.17;100516.63;5039424;28;20519;-72
2023/10/16 01:41:02;;;;;;;2.90;0.05;;;;;;;4.94;59.24;100508.88;5037071;28;20132;-72
2023/10/16 01:43:30;;;;;;;0.10;0.00;;;;;;;4.88;59.16;100514.03;5038164;28;20072;-72
2023/10/16 01:45:59;;;;;;;0.47;0.17;;;;;;;4.94;59.33;100522.66;5037619;28;20081;-72
2023/10/16 01:48:28;;;;;;;0.93;0.10;;;;;;;4.93;59.31;100527.84;5042078;28;20466;-72
2023/10/16 01:50:56;;;;;;;3.83;0.10;;;;;;;4.93;59.21;100528.72;5038342;28;20048;-72
2023/10/16 01:53:25;;;;;;;0.60;0.00;;;;;;;4.92;59.28;100537.34;5041455;28;20055;-72
2023/10/16 01:55:55;;;;;;;2.30;0.00;;;;;;;4.92;59.41;100536.47;5037780;28;20064;-72
2023/10/16 01:58:23;;;;;;;4.72;0.10;;;;;;;4.91;59.33;100534.75;5034697;28;20138;-73
2023/10/16 02:00:51;;;;;;;0.68;0.20;;;;;;;4.90;59.25;100543.38;5039662;28;20827;-73
2023/10/16 02:03:18;;;;;;;0.32;0.10;;;;;;;4.88;59.42;100539.94;5039290;28;20042;-73
2023/10/16 02:05:46;;;;;;;0.52;0.00;;;;;;;4.87;59.34;100540.78;5035123;28;20045;-72
2023/10/16 02:08:14;;;;;;;0.45;0.10;;;;;;;4.87;59.27;100548.56;5038489;28;20076;-72
2023/10/16 02:10:42;;;;;;;3.03;0.10;;;;;;;4.87;59.37;100551.16;5036998;28;20500;-72
2023/10/16 02:13:11;;;;;;;0.68;0.10;;;;;;;4.84;59.37;100544.25;5041005;28;20049;-72
2023/10/16 02:15:38;;;;;;;2.17;0.10;;;;;;;4.84;59.33;100549.41;5025443;28;20503;-72
2023/10/16 02:18:07;;;;;;;1.83;0.20;;;;;;;4.83;59.49;100552.00;5039353;28;20053;-72
2023/10/16 02:20:36;;;;;;;1.00;0.10;;;;;;;4.81;59.36;100548.53;5045155;28;20136;-81
2023/10/16 02:23:06;;;;;;;0.10;0.10;;;;;;;4.76;59.43;100543.38;5050730;28;20053;-82
2023/10/16 02:25:35;;;;;;;2.95;0.10;;;;;;;4.79;59.56;100552.84;5044313;28;20055;-83
2023/10/16 02:28:03;;;;;;;0.40;0.00;;;;;;;4.77;59.60;100552.84;5045393;28;20056;-82
2023/10/16 02:30:35;;;;;;;1.05;0.10;;;;;;;4.79;59.59;100564.06;5037403;28;20049;-72
2023/10/16 02:33:12;;;;;;;2.45;0.10;;;;;;;4.74;59.46;100552.84;5034383;28;20805;-72
2023/10/16 02:35:42;;;;;;;0.90;0.10;;;;;;;4.78;59.66;100556.28;5035916;28;20144;-72
2023/10/16 02:38:12;;;;;;;2.08;0.10;;;;;;;4.76;59.83;100566.66;5037053;28;20060;-72
2023/10/16 02:40:41;;;;;;;0.55;0.03;;;;;;;4.76;59.52;100565.78;5034843;28;20758;-72
2023/10/16 02:43:13;;;;;;;2.30;0.30;;;;;;;4.75;59.75;100564.91;5039056;28;20134;-73
2023/10/16 02:45:46;;;;;;;1.80;1.30;;;;;;;4.71;59.62;100563.19;5037940;28;20140;-72
2023/10/16 02:48:16;;;;;;;5.13;0.25;;;;;;;4.71;59.59;100569.22;5035685;28;20055;-73
2023/10/16 02:50:49;;;;;;;0.43;0.10;;;;;;;4.71;59.82;100579.56;5030781;28;20045;-73
2023/10/16 02:53:20;;;;;;;1.92;0.05;;;;;;;4.70;59.72;100575.25;5040709;28;20124;-72
2023/10/16 02:55:46;;;;;;;4.03;0.20;;;;;;;4.69;59.79;100580.41;5034199;28;20590;-72
2023/10/16 02:58:13;;;;;;;3.03;0.10;;;;;;;4.68;59.77;100584.75;5033254;28;20131;-72
2023/10/16 03:00:49;;;;;;;1.63;0.10;;;;;;;4.67;59.71;100588.19;5041856;28;20057;-70
2023/10/16 03:03:17;;;;;;;2.30;0.10;;;;;;;4.66;59.88;100594.22;5043029;28;20049;-70
2023/10/16 03:05:44;;;;;;;1.75;0.10;;;;;;;4.65;59.74;100600.25;5037835;28;20169;-70
2023/10/16 03:08:12;;;;;;;0.65;0.10;;;;;;;4.65;59.89;100607.16;5044527;28;20693;-70
2023/10/16 03:10:40;;;;;;;3.78;0.10;;;;;;;4.64;59.76;100610.59;5031803;28;20381;-71
2023/10/16 03:13:07;;;;;;;2.40;0.10;;;;;;;4.62;59.90;100612.31;5038326;28;20052;-70
2023/10/16 03:15:42;;;;;;;1.98;1.08;;;;;;;4.61;59.76;100616.66;5037181;28;20072;-70
2023/10/16 03:18:16;;;;;;;0.30;0.10;;;;;;;4.58;59.77;100619.22;5038739;28;20041;-71
2023/10/16 03:20:44;;;;;;;0.60;0.10;;;;;;;4.60;59.80;100635.59;5034673;28;20053;-71
2023/10/16 03:23:12;;;;;;;1.40;0.10;;;;;;;4.61;59.95;100623.50;5034596;28;20051;-70
2023/10/16 03:28:23;;;;;;;2.08;0.10;;;;;;;4.56;60.05;100620.06;5037645;28;20041;-70
2023/10/16 03:30:50;;;;;;;2.75;0.20;;;;;;;4.55;60.01;100620.91;5037204;28;20507;-76
2023/10/16 03:33:18;;;;;;;1.60;0.00;;;;;;;4.54;59.84;100621.78;5037541;28;20046;-78
2023/10/16 03:35:49;;;;;;;1.58;0.40;;;;;;;4.52;59.81;100624.34;5040018;28;20057;-77
2023/10/16 03:38:24;;;;;;;2.10;0.00;;;;;;;4.52;60.11;100616.59;5046441;28;20052;-77
2023/10/16 03:40:52;;;;;;;1.13;0.10;;;;;;;4.50;60.14;100628.66;5039678;28;20045;-70
2023/10/16 03:43:23;;;;;;;2.03;0.10;;;;;;;4.48;60.27;100631.25;5038312;28;20064;-70
2023/10/16 03:45:50;;;;;;;1.67;0.10;;;;;;;4.47;60.24;100631.25;5036056;28;20048;-70
2023/10/16 03:48:20;;;;;;;0.75;0.00;;;;;;;4.45;60.00;100639.00;5033842;28;20756;-70
2023/10/16 03:50:47;;;;;;;4.50;0.25;;;;;;;4.43;60.20;100635.53;5037180;28;20132;-71
2023/10/16 03:53:14;;;;;;;2.75;0.13;;;;;;;4.45;60.21;100645.88;5037775;28;20069;-71
2023/10/16 03:55:47;;;;;;;1.38;0.10;;;;;;;4.43;60.21;100652.75;5035575;28;20053;-70
2023/10/16 03:58:16;;;;;;;2.50;0.08;;;;;;;4.40;60.29;100650.16;5033784;28;20148;-70
2023/10/16 04:00:56;;;;;;;2.13;0.10;;;;;;;4.38;60.22;100657.91;5037956;28;20049;-70
2023/10/16 04:03:26;;;;;;;1.10;0.10;;;;;;;4.35;60.30;100652.72;5037413;28;20460;-70
2023/10/16 04:05:54;;;;;;;1.20;0.10;;;;;;;4.36;60.17;100654.47;5034996;28;20087;-70
2023/10/16 04:08:21;;;;;;;1.13;0.20;;;;;;;4.36;60.16;100658.78;5035031;28;20041;-70
2023/10/16 04:10:49;;;;;;;0.82;0.05;;;;;;;4.35;60.49;100662.19;5036321;28;20061;-71
2023/10/16 04:13:18;;;;;;;4.43;0.10;;;;;;;4.32;60.40;100673.38;5035140;28;20037;-70
2023/10/16 04:16:09;;;;;;;2.85;0.10;;;;;;;4.32;60.48;100667.38;5033385;28;20049;-71
2023/10/16 04:18:41;;;;;;;1.75;0.10;;;;;;;4.31;60.71;100663.06;5035355;28;20076;-71
2023/10/16 04:23:53;;;;;;;1.48;0.10;;;;;;;4.26;60.53;100671.63;5038026;28;20052;-70
2023/10/16 04:26:47;;;;;;;0.60;0.10;;;;;;;4.24;60.44;100678.53;5033119;28;20045;-71
2023/10/16 04:29:25;;;;;;;6.13;0.20;;;;;;;4.22;60.79;100680.25;5037413;28;20103;-71
2023/10/16 04:32:07;;;;;;;1.27;0.08;;;;;;;4.22;60.81;100680.25;5034272;28;20091;-71
2023/10/16 04:34:39;;;;;;;2.50;0.20;;;;;;;4.21;60.94;100686.28;5029792;28;20049;-71
2023/10/16 04:43:07;;;;;;;;;;;;;;;4.16;60.84;100693.13;5015448;28;20053;-74
2023/10/16 04:45:54;;;;;;;3.60;0.20;;;;;;;4.13;60.98;100702.59;5028865;28;20303;-74
2023/10/16 04:51:16;;;;;;;0.20;0.00;;;;;;;4.09;60.95;100701.69;5035503;28;20104;-77
2023/10/16 04:53:58;;;;;;;1.42;0.30;;;;;;;4.07;61.00;100703.44;5047669;28;20083;-77
2023/10/16 04:56:57;;;;;;;1.30;0.20;;;;;;;4.06;61.11;100704.25;5046077;28;20051;-77
2023/10/16 04:59:58;;;;;;;0.57;0.10;;;;;;;3.96;61.20;100699.91;5049715;28;20483;-76
2023/10/16 05:02:40;;;;;;;0.20;0.00;;;;;;;4.00;61.35;100712.84;5046528;28;20041;-79
2023/10/16 05:08:07;;;;;;;4.72;0.25;;;;;;;3.95;61.28;100706.75;5050869;28;20194;-84
2023/10/16 05:13:39;;;;;;;2.13;0.10;;;;;;;3.96;61.25;100708.50;5047290;28;20194;-84
2023/10/16 05:19:14;;;;;;;0.45;0.00;;;;;;;3.94;61.27;100715.38;5050521;28;20090;-86
2023/10/16 05:22:02;;;;;;;0.60;0.10;;;;;;;3.94;61.59;100717.97;5045089;28;20052;-84
2023/10/16 06:14:14;;;;;;;1.13;0.20;;;;;;;3.83;61.70;100787.63;5039948;28;20075;-74
2023/10/16 06:16:42;;;;;;;4.05;0.15;;;;;;;3.86;61.50;100791.13;5038121;28;20053;-75
2023/10/16 06:19:17;;;;;;;2.17;0.10;;;;;;;3.77;61.87;100782.41;5036779;28;20053;-73
2023/10/16 06:21:47;;;;;;;6.07;2.47;;;;;;;3.87;61.28;100798.91;5042060;28;20141;-84
2023/10/16 06:24:28;;;;;;;1.98;0.10;;;;;;;3.89;61.73;100792.00;5054774;28;20049;-77
2023/10/16 06:26:56;;;;;;;0.85;0.40;;;;;;;3.89;61.49;100791.13;5048465;28;20677;-77
2023/10/16 06:29:25;;;;;;;2.10;0.17;;;;;;;3.92;61.43;100807.53;5048929;28;20052;-77
2023/10/16 06:31:58;;;;;;;2.28;0.25;;;;;;;3.91;61.57;100794.63;5042769;28;20051;-81
2023/10/16 06:34:41;;;;;;;2.95;0.20;;;;;;;3.92;61.86;100796.34;5054477;28;20156;-83
2023/10/16 06:37:09;;;;;;;1.10;0.10;;;;;;;3.95;61.51;100791.19;5050298;28;20053;-82
2023/10/16 06:39:36;;;;;;;10.13;3.20;;;;;;;3.85;61.70;100779.06;5045682;28;20041;-79
2023/10/16 06:42:04;;;;;;;27.10;10.57;;;;;;;3.97;61.56;100802.41;5047615;28;20064;-81
2023/10/16 06:44:34;;;;;;;6.25;0.20;;;;;;;4.01;61.73;100806.75;5042628;28;20124;-83
2023/10/16 06:47:01;;;;;;;1.77;0.10;;;;;;;4.03;61.43;100817.97;5046085;28;20048;-80
2023/10/16 06:49:35;;;;;;;1.38;0.10;;;;;;;4.04;61.63;100818.00;5046171;28;20051;-81
2023/10/16 06:52:04;;;;;;;3.50;0.20;;;;;;;4.08;61.50;100823.19;5045049;28;20054;-80
2023/10/16 06:54:31;;;;;;;2.35;0.20;;;;;;;4.11;61.46;100828.38;5043630;28;20048;-83
2023/10/16 06:57:04;;;;;;;2.22;0.20;;;;;;;4.06;61.39;100816.28;5044466;28;20049;-80
2023/10/16 06:59:33;;;;;;;2.13;0.10;;;;;;;4.06;61.46;100807.66;5043284;28;20443;-88
2023/10/16 07:02:00;;;;;;;4.32;0.50;;;;;;;4.12;61.66;100815.47;5037436;28;20411;-76
2023/10/16 07:04:29;;;;;;;0.95;0.00;;;;;;;4.19;61.56;100830.19;5041394;28;20475;-80
2023/10/16 07:06:57;;;;;;;2.75;0.10;;;;;;;4.24;61.63;100835.38;5046151;28;20045;-79
2023/10/16 07:09:35;;;;;;;3.92;0.10;;;;;;;4.27;61.54;100838.00;5046645;28;20053;-78
2023/10/16 07:12:03;;;;;;;0.32;0.00;;;;;;;4.26;61.36;100824.19;5040466;28;20514;-77
2023/10/16 07:14:30;;;;;;;4.03;0.20;;;;;;;4.34;61.40;100833.75;5048256;28;20052;-83
2023/10/16 07:17:00;;;;;;;2.03;0.10;;;;;;;4.34;61.54;100826.00;5041006;28;20057;-79
2023/10/16 07:19:26;;;;;;;1.00;0.05;;;;;;;4.43;61.18;100839.00;5042832;28;20055;-76
2023/10/16 07:21:56;;;;;;;2.45;0.50;;;;;;;4.47;61.35;100838.16;5045082;28;20496;-77
2023/10/16 07:24:23;;;;;;;3.75;0.55;;;;;;;4.52;61.43;100846.81;5047824;28;20575;-79
2023/10/16 07:26:50;;;;;;;0.40;0.10;;;;;;;4.60;61.13;100836.53;5043574;28;20449;-85
2023/10/16 07:29:21;;;;;;;0.20;0.10;;;;;;;4.62;61.36;100843.44;5044603;28;20079;-81
2023/10/16 07:31:49;;;;;;;2.17;0.22;;;;;;;4.66;61.57;100829.66;5044992;28;20051;-80
2023/10/16 07:34:17;;;;;;;5.68;0.60;;;;;;;4.78;61.11;100849.59;5037800;28;20044;-80
2023/10/16 07:36:46;;;;;;;0.30;0.10;;;;;;;4.85;61.07;100840.16;5039200;28;20056;-77
2023/10/16 07:39:13;;;;;;;0.90;0.10;;;;;;;4.91;60.94;100845.34;5048126;28;20045;-78
2023/10/16 07:41:40;;;;;;;0.68;0.10;;;;;;;4.97;60.61;100847.97;5046239;28;20496;-76
2023/10/16 07:44:10;;;;;;;0.85;0.05;;;;;;;5.05;60.52;100858.38;5038093;28;20072;-76
2023/10/16 07:46:38;;;;;;;1.67;0.10;;;;;;;5.10;60.29;100860.13;5037835;28;20041;-79
2023/10/16 07:49:12;;;;;;;4.22;0.20;;;;;;;5.16;60.37;100846.34;5040159;28;20345;-79
2023/10/16 07:51:45;;;;;;;2.17;0.10;;;;;;;5.19;60.10;100847.22;5046090;28;20128;-77
2023/10/16 07:54:13;;;;;;;2.55;0.10;;;;;;;5.31;59.90;100868.84;5042404;28;20777;-83
2023/10/16 07:56:39;;;;;;;4.82;0.10;;;;;;;5.38;59.95;100868.03;5036290;28;20696;-76
2023/10/16 07:59:10;;;;;;;3.38;1.30;;;;;;;5.44;59.92;100862.88;5040622;28;20060;-78
2023/10/16 08:01:42;;;;;;;4.45;2.00;;;;;;;5.51;60.04;100872.38;5040509;28;20385;-76
2023/10/16 08:04:27;;;;;;;3.20;0.40;;;;;;;5.56;59.53;100878.47;5041519;28;20052;-78
2023/10/16 08:06:57;;;;;;;29.67;10.88;;;;;;;5.61;59.26;100870.72;5037962;28;20087;-76
2023/10/16 08:09:48;;;;;;;1.60;0.30;;;;;;;5.70;59.21;100885.44;5042138;28;20036;-81
2023/10/16 08:12:19;;;;;;;3.17;0.30;;;;;;;5.73;59.02;100867.28;5042606;28;20488;-79
2023/10/16 08:14:51;;;;;;;2.13;0.20;;;;;;;5.83;58.99;100866.44;5045731;28;20095;-75
2023/10/16 08:17:23;;;;;;;1.52;0.40;;;;;;;5.88;58.85;100869.91;5043725;28;20096;-79
2023/10/16 08:19:51;;;;;;;3.20;0.10;;;;;;;5.95;58.73;100873.41;5046884;28;20132;-79
2023/10/16 08:22:25;;;;;;;3.00;0.10;;;;;;;6.01;58.47;100876.03;5037930;28;20049;-75
2023/10/16 08:24:59;;;;;;;3.55;0.82;;;;;;;6.06;58.60;100875.19;5036668;28;20488;-77
2023/10/16 08:27:43;;;;;;;2.33;0.10;;;;;;;6.12;58.55;100870.84;5044866;28;20389;-82
2023/10/16 08:30:19;;;;;;;2.05;0.40;;;;;;;6.17;58.53;100882.09;5054208;28;20044;-82
2023/10/16 08:32:54;;;;;;;0.57;0.20;;;;;;;6.23;58.27;100874.31;5046633;28;20114;-81
2023/10/16 08:35:21;;;;;;;4.93;0.30;;;;;;;6.26;58.39;100876.91;5052958;28;20055;-80
2023/10/16 08:37:56;;;;;;;1.95;0.20;;;;;;;6.27;57.86;100871.75;5051474;28;20052;-80
2023/10/16 08:40:32;;;;;;;0.77;0.05;;;;;;;6.33;57.94;100876.06;5052868;28;20045;-79
2023/10/16 08:43:02;;;;;;;1.40;0.00;;;;;;;6.30;58.12;100868.28;5041892;28;20053;-79
2023/10/16 08:45:29;;;;;;;1.48;0.28;;;;;;;6.38;58.02;100874.34;5048171;28;20049;-80
2023/10/16 08:47:58;;;;;;;2.38;0.30;;;;;;;6.42;57.65;100881.25;5048616;28;20107;-79
2023/10/16 08:50:40;;;;;;;1.85;0.10;;;;;;;6.44;57.83;100876.94;5050224;28;20298;-80
2023/10/16 08:53:30;;;;;;;1.55;0.10;;;;;;;6.47;57.27;100879.53;5048636;28;20511;-82
2023/10/16 08:55:58;;;;;;;15.52;0.63;;;;;;;6.49;57.53;100883.00;5043025;28;20045;-80
2023/10/16 08:58:26;;;;;;;1.65;0.00;;;;;;;6.45;57.37;100865.69;5046812;28;20051;-82
2023/10/16 09:00:57;;;;;;;1.73;0.10;;;;;;;6.53;57.49;100887.31;5049191;28;20129;-81
2023/10/16 09:03:24;;;;;;;0.93;0.10;;;;;;;6.56;57.03;100883.84;5048208;28;20107;-81
2023/10/16 09:05:53;;;;;;;0.30;0.10;;;;;;;6.57;57.10;100877.78;5045689;28;20472;-81
2023/10/16 09:08:21;;;;;;;4.15;0.00;;;;;;;6.61;57.24;100886.47;5050205;28;20044;-80
2023/10/16 09:10:49;;;;;;;16.15;6.10;;;;;;;6.62;57.17;100888.19;5048360;28;20045;-81
2023/10/16 09:13:17;;;;;;;5.72;1.33;;;;;;;6.64;56.96;100895.09;5048412;28;20095;-81
2023/10/16 09:15:46;;;;;;;2.38;0.30;;;;;;;6.64;56.72;100891.66;5047754;28;20055;-80
2023/10/16 09:18:16;;;;;;;3.35;0.20;;;;;;;6.61;56.94;100884.72;5046134;28;20045;-81
2023/10/16 09:20:43;;;;;;;1.42;0.10;;;;;;;6.74;56.55;100901.13;5043967;28;20045;-80
2023/10/16 09:23:14;;;;;;;4.18;0.20;;;;;;;6.80;56.87;100898.53;5047864;28;20088;-81
2023/10/16 09:25:48;;;;;;;5.18;0.95;;;;;;;6.88;56.94;100908.91;5022948;28;20095;-81
2023/10/16 09:28:19;;;;;;;0.80;0.10;;;;;;;6.97;56.18;100907.19;5046220;28;20112;-80
2023/10/16 09:30:49;;;;;;;2.35;0.20;;;;;;;7.05;56.47;100911.50;5043113;28;20462;-76
2023/10/16 09:33:16;;;;;;;1.73;0.30;;;;;;;7.08;56.02;100901.09;5038590;28;20961;-78
2023/10/16 09:35:46;;;;;;;5.07;0.20;;;;;;;7.02;55.95;100885.53;5043262;28;20139;-77
2023/10/16 09:38:18;;;;;;;4.32;0.13;;;;;;;7.12;55.98;100903.69;5041586;28;20131;-84
2023/10/16 09:41:31;;;;;;;22.83;9.30;;;;;;;7.15;56.24;100902.84;5050136;28;20135;-86
2023/10/16 09:43:48;;;;;;;1.63;0.40;;;;;;;7.19;55.37;100905.41;5046895;28;20050;-86
2023/10/16 09:46:33;;;;;;;5.43;0.50;;;;;;;7.20;55.64;100906.28;5042801;28;20077;-87
2023/10/16 09:49:05;;;;;;;0.80;0.03;;;;;;;7.22;55.85;100904.53;5051721;28;20044;-83
2023/10/16 09:51:35;;;;;;;3.30;0.22;;;;;;;7.22;55.49;100904.53;5054162;28;20063;-86
2023/10/16 09:54:03;;;;;;;1.38;0.10;;;;;;;7.22;55.20;100897.59;5039288;28;20053;-86
2023/10/16 09:56:38;;;;;;;3.65;1.02;;;;;;;7.25;55.39;100909.72;5046161;28;20045;-88
2023/10/16 09:59:12;;;;;;;6.38;2.08;;;;;;;7.26;55.19;100906.25;5049233;28;20061;-88
2023/10/16 10:01:42;;;;;;;4.05;0.17;;;;;;;7.23;55.11;100916.66;5043013;28;20049;-89
2023/10/16 10:04:10;;;;;;;1.77;0.38;;;;;;;7.26;54.67;100907.97;5045396;28;20061;-90
2023/10/16 10:06:39;;;;;;;4.97;1.17;;;;;;;7.28;54.87;100912.31;5039222;28;20480;-91
2023/10/16 10:09:32;;;;;;;2.28;0.20;;;;;;;7.30;54.85;100917.50;5051623;28;20041;-83
2023/10/16 10:12:13;;;;;;;1.13;0.10;;;;;;;7.31;54.79;100920.09;5044985;28;20055;-86
2023/10/16 10:14:48;;;;;;;2.03;0.20;;;;;;;7.27;54.81;100904.53;5049709;28;20132;-85
2023/10/16 10:17:19;;;;;;;3.00;1.58;;;;;;;7.31;54.69;100912.28;5042276;28;20049;-83
2023/10/16 10:19:54;;;;;;;1.80;0.10;;;;;;;7.32;55.06;100920.97;5050262;28;20928;-84
2023/10/16 10:22:27;;;;;;;1.13;0.10;;;;;;;7.33;54.78;100913.16;5045103;28;20496;-85
2023/10/16 10:25:11;;;;;;;0.50;0.10;;;;;;;7.33;54.92;100912.31;5048938;28;20136;-84
2023/10/16 10:27:43;;;;;;;2.47;0.05;;;;;;;7.36;54.77;100918.34;5041950;28;20068;-82
2023/10/16 10:30:18;;;;;;;1.35;0.10;;;;;;;7.36;54.91;100920.94;5041542;28;20056;-74
2023/10/16 10:32:55;;;;;;;1.88;0.10;;;;;;;7.37;54.39;100917.50;5036735;28;20052;-75
2023/10/16 10:35:26;;;;;;;0.47;0.10;;;;;;;7.37;54.14;100920.09;5033586;28;20056;-74
2023/10/16 10:38:17;;;;;;;1.42;0.10;;;;;;;7.38;54.46;100920.94;5039387;28;20076;-74
2023/10/16 10:41:15;;;;;;;1.38;0.10;;;;;;;7.36;54.74;100923.53;5036053;28;20049;-74
2023/10/16 10:43:48;;;;;;;1.17;0.10;;;;;;;7.41;54.72;100926.13;5036435;28;21244;-73
2023/10/16 10:46:25;;;;;;;2.53;0.10;;;;;;;7.41;54.70;100928.75;5033376;28;20058;-75
2023/10/16 10:48:54;;;;;;;2.00;0.10;;;;;;;7.41;54.45;100924.41;5035023;28;20056;-75
2023/10/16 10:51:22;;;;;;;2.60;0.10;;;;;;;7.42;54.18;100928.72;5037938;28;20041;-76
2023/10/16 10:53:56;;;;;;;0.40;0.10;;;;;;;7.40;54.31;100920.09;5040112;28;20069;-77
2023/10/16 10:56:23;;;;;;;3.20;0.25;;;;;;;7.33;54.70;100902.75;5039873;28;20048;-76
2023/10/16 10:58:51;;;;;;;3.17;0.43;;;;;;;7.44;54.45;100923.53;5035485;28;20063;-76
2023/10/16 11:01:26;;;;;;;0.50;0.00;;;;;;;7.41;54.40;100916.59;5037326;28;20102;-76
2023/10/16 11:03:55;;;;;;;0.20;0.05;;;;;;;7.45;54.39;100930.44;5038969;28;20050;-76
2023/10/16 11:06:32;;;;;;;0.10;0.00;;;;;;;7.43;54.21;100927.88;5035468;28;20851;-78
2023/10/16 11:09:11;;;;;;;1.48;0.00;;;;;;;7.45;53.89;100935.66;5039512;28;20064;-78
2023/10/16 11:11:44;;;;;;;1.75;0.00;;;;;;;7.45;53.97;100922.66;5038432;28;20053;-77
2023/10/16 11:14:13;;;;;;;0.30;0.10;;;;;;;7.46;53.89;100928.69;5040899;28;20153;-78
2023/10/16 11:16:45;;;;;;;2.00;0.20;;;;;;;7.42;54.45;100925.25;5045039;28;20495;-77
2023/10/16 11:19:18;;;;;;;0.60;0.00;;;;;;;7.44;54.17;100927.00;5036479;28;20127;-77
2023/10/16 11:21:47;;;;;;;0.38;0.20;;;;;;;7.46;53.96;100931.31;5035282;28;20044;-76
2023/10/16 11:24:14;;;;;;;0.30;0.03;;;;;;;7.47;54.04;100927.84;5032880;28;20394;-78
2023/10/16 11:26:45;;;;;;;1.75;0.10;;;;;;;7.47;54.19;100936.50;5038763;28;20057;-75
2023/10/16 11:29:14;;;;;;;0.15;0.00;;;;;;;7.48;54.46;100939.97;5037694;28;20142;-75
2023/10/16 11:31:41;;;;;;;0.98;0.00;;;;;;;7.46;54.12;100931.31;5046629;28;20081;-83
2023/10/16 11:34:13;;;;;;;0.20;0.00;;;;;;;7.48;54.05;100929.56;5039968;28;20072;-81
2023/10/16 11:36:41;;;;;;;1.88;0.05;;;;;;;7.49;54.18;100923.53;5032731;28;20049;-82
2023/10/16 11:39:08;;;;;;;0.38;0.00;;;;;;;7.44;54.20;100919.19;5040943;28;20427;-75
2023/10/16 11:41:36;;;;;;;0.73;0.00;;;;;;;7.41;54.00;100911.41;5036157;28;20178;-75
2023/10/16 11:44:12;;;;;;;0.73;0.00;;;;;;;7.46;54.09;100920.91;5040284;28;20481;-75
2023/10/16 11:46:46;;;;;;;1.25;0.32;;;;;;;7.51;54.28;100934.75;5010996;28;20085;-74
2023/10/16 11:49:29;;;;;;;4.13;0.10;;;;;;;7.49;54.24;100941.72;5038305;28;20492;-76
2023/10/16 11:52:08;;;;;;;0.30;0.00;;;;;;;7.52;54.29;100944.31;5032673;28;20583;-74
2023/10/16 11:54:36;;;;;;;0.30;0.10;;;;;;;7.50;54.19;100935.63;5038135;28;20056;-74
2023/10/16 11:57:06;;;;;;;5.70;0.00;;;;;;;7.49;54.18;100939.97;5038799;28;20048;-75
2023/10/16 11:59:33;;;;;;;4.55;0.10;;;;;;;7.54;54.49;100942.53;5034668;28;20175;-75
2023/10/16 12:02:10;;;;;;;0.20;0.00;;;;;;;7.55;54.50;100949.50;5033454;28;20049;-78
2023/10/16 12:04:39;;;;;;;1.65;0.08;;;;;;;7.56;54.57;100959.00;5034944;28;20136;-74
2023/10/16 12:07:07;;;;;;;1.48;0.05;;;;;;;7.54;54.91;100956.44;5032328;28;20071;-75
2023/10/16 12:09:38;;;;;;;1.25;0.28;;;;;;;7.58;54.65;100959.88;5037406;28;20053;-77
2023/10/16 12:12:06;;;;;;;1.58;0.10;;;;;;;7.60;54.60;100952.94;5038539;28;20081;-76
2023/10/16 12:14:37;;;;;;;1.52;0.38;;;;;;;7.60;54.49;100950.34;5032931;28;20457;-76
2023/10/16 12:17:11;;;;;;;1.10;0.10;;;;;;;7.58;54.65;100949.47;5040235;28;20049;-76
2023/10/16 12:19:38;;;;;;;0.63;0.22;;;;;;;7.60;54.58;100959.00;5035399;28;20140;-76
2023/10/16 12:22:08;;;;;;;3.10;1.65;;;;;;;7.61;54.74;100944.28;5035449;28;20045;-76
2023/10/16 12:24:35;;;;;;;1.40;0.30;;;;;;;7.61;54.27;100952.94;5034365;28;20056;-77
2023/10/16 12:27:03;;;;;;;2.85;0.10;;;;;;;7.63;54.77;100948.59;5036047;28;20148;-76
2023/10/16 12:29:31;;;;;;;5.35;0.20;;;;;;;7.63;54.25;100947.75;5030794;28;20042;-76
2023/10/16 12:32:03;;;;;;;0.70;0.13;;;;;;;7.58;54.58;100945.13;5036835;28;20171;-76
2023/10/16 12:34:32;;;;;;;4.45;1.48;;;;;;;7.59;54.67;100933.00;5035295;28;20045;-77
2023/10/16 12:37:00;;;;;;;0.25;0.10;;;;;;;7.63;54.37;100945.13;5032895;28;20052;-75
2023/10/16 12:39:28;;;;;;;3.53;1.00;;;;;;;7.63;54.58;100948.59;5034397;28;20061;-76
2023/10/16 12:41:55;;;;;;;6.38;2.58;;;;;;;7.68;54.16;100945.09;5033185;28;20499;-76
2023/10/16 12:44:23;;;;;;;1.95;1.42;;;;;;;7.67;54.27;100954.63;5038033;28;20049;-75
2023/10/16 12:46:52;;;;;;;1.50;0.10;;;;;;;7.66;54.52;100952.91;5034857;28;20751;-76
2023/10/16 12:49:19;;;;;;;0.65;0.03;;;;;;;7.68;54.58;100950.28;5036611;28;20687;-76
2023/10/16 12:51:48;;;;;;;0.65;0.00;;;;;;;7.70;54.92;100959.81;5032893;28;20056;-74
2023/10/16 12:54:16;;;;;;;1.17;0.00;;;;;;;7.71;55.15;100960.69;5037405;28;20720;-74
2023/10/16 12:56:44;;;;;;;0.20;0.10;;;;;;;7.72;54.87;100962.44;5026700;28;20507;-75
2023/10/16 12:59:11;;;;;;;2.08;0.10;;;;;;;7.69;54.58;100963.31;5038350;28;20044;-83
2023/10/16 13:01:40;;;;;;;0.40;0.00;;;;;;;7.71;54.85;100960.69;5043660;28;20049;-83
2023/10/16 13:04:13;;;;;;;1.38;1.05;;;;;;;7.73;55.16;100975.41;5037124;28;20073;-81
2023/10/16 13:06:43;;;;;;;10.70;3.75;;;;;;;7.73;54.96;100961.56;5036386;28;20160;-83